Time;durP1;ratioP1;P1;durP2;ratioP2;P2;SDS_P1;SDS_P2;PMS_P1;PMS_P2;Temp;Humidity;BMP_temperature;BMP_pressure;BME280_temperature;BME280_humidity;BME280_pressure;Samples;Min_cycle;Max_cycle;Signal;HPM_P1;HPM_P2
2022/11/23 00:00:34;;;;;;;16.33;11.00;;;;;;;;;;5072598;28;20397;-83
2022/11/23 00:03:19;;;;;;;19.27;11.43;;;;;;;;;;5073015;28;20036;-83
2022/11/23 00:06:03;;;;;;;18.40;12.00;;;;;;;;;;5057902;28;20071;-84
2022/11/23 00:08:48;;;;;;;17.67;10.80;;;;;;;;;;5072496;28;20087;-84
2022/11/23 00:11:34;;;;;;;17.55;11.35;;;7.80;99.90;;;;;;5072210;28;20546;-84
2022/11/23 00:14:19;;;;;;;19.55;11.02;;;;;;;;;;5071865;28;20059;-83
2022/11/23 00:17:03;;;;;;;16.02;10.15;;;;;;;;;;5100273;28;20491;-84
2022/11/23 00:19:48;;;;;;;18.13;11.75;;;;;;;;;;5100908;28;20472;-84
2022/11/23 00:22:32;;;;;;;21.88;12.00;;;;;;;;;;5072120;28;20176;-84
2022/11/23 00:25:17;;;;;;;16.10;11.43;;;;;;;;;;5071649;28;20123;-84
2022/11/23 00:28:01;;;;;;;21.60;12.43;;;;;;;;;;5072609;28;20078;-84
2022/11/23 00:30:49;;;;;;;17.58;11.88;;;7.90;99.90;;;;;;5072110;28;20074;-84
2022/11/23 00:33:34;;;;;;;19.73;11.73;;;;;;;;;;5072961;28;20051;-84
2022/11/23 00:36:20;;;;;;;18.70;12.27;;;7.90;99.90;;;;;;5072587;28;20038;-84
2022/11/23 00:39:05;;;;;;;21.17;11.57;;;;;;;;;;5072291;28;20063;-84
2022/11/23 00:41:49;;;;;;;22.15;12.57;;;;;;;;;;5071976;28;20062;-84
2022/11/23 00:44:34;;;;;;;19.45;12.65;;;;;;;;;;5072970;28;20044;-84
2022/11/23 00:47:18;;;;;;;21.85;12.10;;;;;;;;;;5085524;28;20439;-84
2022/11/23 00:50:03;;;;;;;16.48;11.43;;;;;;;;;;5072398;28;20095;-86
2022/11/23 00:52:47;;;;;;;23.60;12.75;;;;;;;;;;5072577;28;20094;-85
2022/11/23 00:55:32;;;;;;;20.70;11.65;;;;;;;;;;5074722;28;20047;-84
2022/11/23 00:58:17;;;;;;;16.25;11.40;;;;;;;;;;5077163;28;20085;-84
2022/11/23 01:01:07;;;;;;;19.98;11.90;;;8.00;99.90;;;;;;5077427;28;20031;-84
2022/11/23 01:03:57;;;;;;;26.98;14.00;;;8.00;99.90;;;;;;5092749;28;20046;-84
2022/11/23 01:06:41;;;;;;;18.23;12.40;;;;;;;;;;5077317;28;20074;-84
2022/11/23 01:09:26;;;;;;;18.65;12.30;;;;;;;;;;5077040;28;20089;-84
2022/11/23 01:12:10;;;;;;;15.98;11.20;;;;;;;;;;5077004;28;20565;-84
2022/11/23 01:14:55;;;;;;;19.63;11.57;;;;;;;;;;5077059;28;20162;-84
2022/11/23 01:17:40;;;;;;;19.45;11.20;;;;;;;;;;5076833;28;20038;-84
2022/11/23 01:20:24;;;;;;;20.45;12.30;;;;;;;;;;5091009;28;20164;-84
2022/11/23 01:23:08;;;;;;;18.05;11.52;;;;;;;;;;5092236;28;20065;-85
2022/11/23 01:25:53;;;;;;;19.10;12.05;;;;;;;;;;5092723;28;20039;-84
2022/11/23 01:28:39;;;;;;;18.00;11.38;;;8.00;99.90;;;;;;5105877;28;20070;-84
2022/11/23 01:31:25;;;;;;;18.95;11.30;;;8.00;99.90;;;;;;5092174;28;20391;-84
2022/11/23 01:34:11;;;;;;;22.92;11.70;;;7.90;99.90;;;;;;5076593;28;20111;-85
2022/11/23 01:36:55;;;;;;;18.17;11.65;;;;;;;;;;5092238;28;20085;-84
2022/11/23 01:39:40;;;;;;;21.70;12.80;;;;;;;;;;5105950;28;20085;-84
2022/11/23 01:42:41;;;;;;;17.73;11.20;;;8.00;99.90;;;;;;5105296;28;20065;-84
2022/11/23 01:45:37;;;;;;;17.13;11.88;;;7.70;99.90;;;;;;5091836;28;20039;-84
2022/11/23 01:48:38;;;;;;;20.63;12.63;;;7.90;99.90;;;;;;5105395;28;20071;-84
2022/11/23 01:51:27;;;;;;;20.63;11.45;;;8.00;99.90;;;;;;5076705;28;20115;-84
2022/11/23 01:54:23;;;;;;;23.20;12.63;;;8.20;99.90;;;;;;5076446;28;21415;-85
2022/11/23 01:57:20;;;;;;;23.40;13.45;;;8.00;99.90;;;;;;5081464;28;20063;-84
2022/11/23 02:00:05;;;;;;;17.50;11.88;;;;;;;;;;5081337;28;20065;-84
2022/11/23 02:02:59;;;;;;;23.20;13.38;;;8.00;99.90;;;;;;5105365;28;20074;-84
2022/11/23 02:05:47;;;;;;;18.08;12.57;;;8.00;99.90;;;;;;5077050;28;20498;-84
2022/11/23 02:08:32;;;;;;;24.15;13.10;;;;;;;;;;5091629;28;20030;-84
2022/11/23 02:11:16;;;;;;;20.55;11.93;;;;;;;;;;5105039;28;20043;-84
2022/11/23 02:14:01;;;;;;;19.48;12.75;;;;;;;;;;5064826;28;20510;-84
2022/11/23 02:16:45;;;;;;;15.82;12.15;;;;;;;;;;5076593;28;20084;-84
2022/11/23 02:20:07;;;;;;;24.88;12.23;;;7.90;99.90;;;;;;5091660;28;20039;-84
2022/11/23 02:23:14;;;;;;;17.73;12.15;;;8.00;99.90;;;;;;5082828;28;20503;-84
2022/11/23 02:26:04;;;;;;;20.83;12.82;;;8.00;99.90;;;;;;5091978;28;20054;-84
2022/11/23 02:29:17;;;;;;;21.60;12.50;;;7.90;99.90;;;;;;5077280;28;20035;-84
2022/11/23 02:32:01;;;;;;;21.25;12.27;;;;;;;;;;5095423;28;20487;-84
2022/11/23 02:34:46;;;;;;;19.95;13.02;;;;;;;;;;5080289;28;20042;-84
2022/11/23 02:37:31;;;;;;;19.90;12.23;;;;;;;;;;5094930;28;20097;-84
2022/11/23 02:40:29;;;;;;;20.48;13.45;;;8.00;99.90;;;;;;5080081;28;20047;-84
2022/11/23 02:43:14;;;;;;;19.17;12.52;;;;;;;;;;5070605;28;20035;-84
2022/11/23 02:46:01;;;;;;;23.00;13.02;;;8.00;99.90;;;;;;5065844;28;20047;-84
2022/11/23 02:48:46;;;;;;;19.88;12.40;;;8.00;99.90;;;;;;5079746;28;20435;-85
2022/11/23 02:51:30;;;;;;;;;;;8.00;99.90;;;;;;5095206;28;20082;-84
2022/11/23 02:54:15;;;;;;;18.95;12.73;;;;;;;;;;5079589;28;19927;-84
2022/11/23 02:56:59;;;;;;;19.77;12.25;;;;;;;;;;5108382;28;20067;-84
2022/11/23 02:59:44;;;;;;;21.48;12.68;;;;;;;;;;5107950;28;20088;-83
2022/11/23 03:02:28;;;;;;;20.92;12.80;;;;;;;;;;5079177;28;20035;-84
2022/11/23 03:05:12;;;;;;;19.65;13.35;;;;;;;;;;5108153;28;20039;-84
2022/11/23 03:07:57;;;;;;;23.75;12.75;;;;;;;;;;5094712;28;20043;-85
2022/11/23 03:10:42;;;;;;;21.45;12.55;;;;;;;;;;5079112;28;20400;-84
2022/11/23 03:13:26;;;;;;;22.27;14.00;;;;;;;;;;5094273;28;20089;-84
2022/11/23 03:16:11;;;;;;;25.52;14.73;;;;;;;;;;5079408;28;20042;-84
2022/11/23 03:18:55;;;;;;;26.33;14.15;;;;;;;;;;5108151;28;20458;-84
2022/11/23 03:21:40;;;;;;;27.73;14.18;;;;;;;;;;5094094;28;20443;-84
2022/11/23 03:24:24;;;;;;;21.80;13.80;;;;;;;;;;5078890;28;20145;-85
2022/11/23 03:27:09;;;;;;;25.75;13.95;;;;;;;;;;5079060;28;20081;-84
2022/11/23 03:29:53;;;;;;;24.45;14.80;;;;;;;;;;5093018;28;20082;-84
2022/11/23 03:32:38;;;;;;;24.20;14.82;;;;;;;;;;5078656;28;20125;-83
2022/11/23 03:35:22;;;;;;;26.85;14.43;;;;;;;;;;5093958;28;20082;-84
2022/11/23 03:38:07;;;;;;;22.75;14.43;;;;;;;;;;5094209;28;20437;-84
2022/11/23 03:40:52;;;;;;;29.30;14.88;;;;;;;;;;5078645;28;20507;-85
2022/11/23 03:43:36;;;;;;;38.80;17.48;;;;;;;;;;5078378;28;20067;-85
2022/11/23 03:46:21;;;;;;;31.13;16.73;;;;;;;;;;5078619;28;20078;-84
2022/11/23 03:49:06;;;;;;;31.95;17.20;;;;;;;;;;5078731;28;20120;-84
2022/11/23 03:51:50;;;;;;;28.55;16.33;;;;;;;;;;5093435;28;20506;-84
2022/11/23 03:54:35;;;;;;;28.40;16.27;;;;;;;;;;5064072;28;20079;-84
2022/11/23 03:57:19;;;;;;;34.50;16.55;;;;;;;;;;5064528;28;20088;-84
2022/11/23 04:00:04;;;;;;;36.58;17.23;;;8.40;99.90;;;;;;5093672;28;20119;-84
2022/11/23 04:02:49;;;;;;;31.92;17.02;;;;;;;;;;5078092;28;20518;-84
2022/11/23 04:05:33;;;;;;;34.45;17.38;;;;;;;;;;5093162;28;20131;-84
2022/11/23 04:08:17;;;;;;;30.35;17.48;;;;;;;;;;5064461;28;20488;-84
2022/11/23 04:11:02;;;;;;;31.27;17.02;;;;;;;;;;5093620;28;20039;-84
2022/11/23 04:13:46;;;;;;;39.65;18.70;;;;;;;;;;5092960;28;20093;-83
2022/11/23 04:16:31;;;;;;;36.45;18.92;;;;;;;;;;5093130;28;20453;-85
2022/11/23 04:19:15;;;;;;;32.67;18.42;;;;;;;;;;5078049;28;20526;-84
2022/11/23 04:22:00;;;;;;;30.77;18.20;;;;;;;;;;5078079;28;20101;-84
2022/11/23 04:24:44;;;;;;;33.47;19.08;;;;;;;;;;5093013;28;20039;-84
2022/11/23 04:27:29;;;;;;;39.25;20.13;;;;;;;;;;5063799;28;20062;-84
2022/11/23 04:30:14;;;;;;;35.42;18.27;;;;;;;;;;5093249;28;20586;-84
2022/11/23 04:32:59;;;;;;;39.38;19.55;;;;;;;;;;5077904;28;20100;-84
2022/11/23 04:35:43;;;;;;;36.75;20.85;;;;;;;;;;5092671;28;20545;-84
2022/11/23 04:38:28;;;;;;;38.42;20.20;;;;;;;;;;5077673;28;20031;-84
2022/11/23 04:41:12;;;;;;;32.67;19.90;;;;;;;;;;5077642;28;20078;-84
2022/11/23 04:43:57;;;;;;;35.95;19.13;;;;;;;;;;5092657;28;20058;-84
2022/11/23 04:46:41;;;;;;;36.13;19.05;;;;;;;;;;5077223;28;20073;-84
2022/11/23 04:49:26;;;;;;;40.92;21.83;;;;;;;;;;5093009;28;20115;-84
2022/11/23 04:52:11;;;;;;;36.90;19.77;;;;;;;;;;5092206;28;20541;-84
2022/11/23 04:54:55;;;;;;;39.58;21.45;;;;;;;;;;5077128;28;20412;-85
2022/11/23 04:57:40;;;;;;;41.85;19.77;;;;;;;;;;5077185;28;20063;-84
2022/11/23 05:00:25;;;;;;;37.70;20.83;;;;;;;;;;5063509;28;20035;-84
2022/11/23 05:03:10;;;;;;;41.45;22.55;;;;;;;;;;5077431;28;20043;-84
2022/11/23 05:05:57;;;;;;;41.47;21.27;;;8.10;99.90;;;;;;5063024;28;20039;-84
2022/11/23 05:08:42;;;;;;;39.42;20.80;;;;;;;;;;5092361;28;20030;-84
2022/11/23 05:11:27;;;;;;;32.63;21.73;;;;;;;;;;5077557;28;20450;-84
2022/11/23 05:14:11;;;;;;;42.75;20.73;;;;;;;;;;5077306;28;20092;-84
2022/11/23 05:16:56;;;;;;;38.67;20.83;;;;;;;;;;5076863;28;20135;-84
2022/11/23 05:19:40;;;;;;;39.55;21.70;;;;;;;;;;5077035;28;20038;-85
2022/11/23 05:22:25;;;;;;;36.80;20.55;;;;;;;;;;5092454;28;20089;-84
2022/11/23 05:25:09;;;;;;;38.83;21.00;;;;;;;;;;5062967;28;20115;-85
2022/11/23 05:27:54;;;;;;;40.00;20.63;;;;;;;;;;5076821;28;20058;-84
2022/11/23 05:30:38;;;;;;;45.67;21.40;;;;;;;;;;5077249;28;20036;-84
2022/11/23 05:33:23;;;;;;;37.35;19.98;;;;;;;;;;5063041;28;20404;-84
2022/11/23 05:36:08;;;;;;;40.30;20.45;;;8.20;99.90;;;;;;5077206;28;20043;-84
2022/11/23 05:38:52;;;;;;;33.10;19.13;;;;;;;;;;5076895;28;20043;-84
2022/11/23 05:41:37;;;;;;;37.17;19.85;;;;;;;;;;5092367;28;20085;-84
2022/11/23 05:44:21;;;;;;;38.13;19.55;;;;;;;;;;5077327;28;20039;-84
2022/11/23 05:47:07;;;;;;;32.83;19.00;;;;;;;;;;5076659;28;20039;-84
2022/11/23 05:49:51;;;;;;;29.00;17.73;;;;;;;;;;5076703;28;20047;-84
2022/11/23 05:52:36;;;;;;;32.40;17.25;;;;;;;;;;5092400;28;20043;-84
2022/11/23 05:55:20;;;;;;;27.98;16.38;;;;;;;;;;5062878;28;20063;-84
2022/11/23 05:58:05;;;;;;;31.92;17.30;;;;;;;;;;5091419;28;20565;-84
2022/11/23 06:00:49;;;;;;;25.60;16.50;;;;;;;;;;5076709;28;20399;-84
2022/11/23 06:03:33;;;;;;;26.20;16.30;;;;;;;;;;5078693;28;20027;-84
2022/11/23 06:06:18;;;;;;;29.35;16.48;;;;;;;;;;5080754;28;20043;-84
2022/11/23 06:09:02;;;;;;;30.65;16.40;;;;;;;;;;5066154;28;20061;-84
2022/11/23 06:11:47;;;;;;;29.05;14.70;;;;;;;;;;5080057;28;20039;-84
2022/11/23 06:14:31;;;;;;;22.83;14.63;;;;;;;;;;5066409;28;20047;-84
2022/11/23 06:17:16;;;;;;;29.73;15.38;;;;;;;;;;5095638;28;20039;-84
2022/11/23 06:20:00;;;;;;;29.65;15.00;;;;;;;;;;5079914;28;20070;-86
2022/11/23 06:22:52;;;;;;;35.58;15.27;;;8.00;99.90;;;;;;5080457;28;20035;-84
2022/11/23 06:25:37;;;;;;;26.10;13.40;;;;;;;;;;5095620;28;20137;-84
2022/11/23 06:28:22;;;;;;;28.85;14.02;;;;;;;;;;5066491;28;20606;-84
2022/11/23 06:31:07;;;;;;;29.50;13.75;;;;;;;;;;5095132;28;20115;-84
2022/11/23 06:33:52;;;;;;;27.10;15.25;;;8.00;99.90;;;;;;5094903;28;20047;-84
2022/11/23 06:36:36;;;;;;;27.92;12.95;;;;;;;;;;5080315;28;20051;-84
2022/11/23 06:39:21;;;;;;;26.38;13.88;;;;;;;;;;5079874;28;20050;-84
2022/11/23 06:42:05;;;;;;;23.48;12.70;;;;;;;;;;5065529;28;20086;-84
2022/11/23 06:44:49;;;;;;;25.98;12.68;;;;;;;;;;5079915;28;20035;-84
2022/11/23 06:47:34;;;;;;;34.25;14.25;;;;;;;;;;5080059;28;20044;-84
2022/11/23 06:50:19;;;;;;;31.83;13.18;;;;;;;;;;5079887;28;20043;-84
2022/11/23 06:53:03;;;;;;;24.30;12.98;;;;;;;;;;5079331;28;20039;-85
2022/11/23 06:55:48;;;;;;;25.95;12.70;;;;;;;;;;5095178;28;20046;-84
2022/11/23 06:58:32;;;;;;;24.27;11.98;;;;;;;;;;5079297;28;20094;-84
2022/11/23 07:01:17;;;;;;;24.25;12.70;;;;;;;;;;5095340;28;20035;-84
2022/11/23 07:04:02;;;;;;;24.15;11.52;;;;;;;;;;5065196;28;20099;-84
2022/11/23 07:06:46;;;;;;;19.60;10.95;;;;;;;;;;5094799;28;20065;-84
2022/11/23 07:09:30;;;;;;;19.98;10.10;;;;;;;;;;5095089;28;20042;-84
2022/11/23 07:12:15;;;;;;;27.05;12.13;;;;;;;;;;5094464;28;20043;-84
2022/11/23 07:15:00;;;;;;;21.48;10.10;;;;;;;;;;5093297;28;20047;-85
2022/11/23 07:17:44;;;;;;;20.70;10.30;;;;;;;;;;5079396;28;20093;-84
2022/11/23 07:20:29;;;;;;;26.58;9.32;;;;;;;;;;5094510;28;20070;-84
2022/11/23 07:23:13;;;;;;;18.08;9.50;;;;;;;;;;5078869;28;20038;-84
2022/11/23 07:25:58;;;;;;;24.23;10.15;;;;;;;;;;5064812;28;20035;-85
2022/11/23 07:28:43;;;;;;;13.48;8.88;;;;;;;;;;5094334;28;20039;-84
2022/11/23 07:31:27;;;;;;;23.20;9.75;;;;;;;;;;5079203;28;20039;-84
2022/11/23 07:34:12;;;;;;;21.27;8.82;;;;;;;;;;5064286;28;20416;-84
2022/11/23 07:36:56;;;;;;;22.30;9.35;;;;;;;;;;5094153;28;20043;-86
2022/11/23 07:39:41;;;;;;;17.90;8.10;;;;;;;;;;5078903;28;20062;-84
2022/11/23 07:42:26;;;;;;;14.27;7.57;;;;;;;;;;5094303;28;20039;-84
2022/11/23 07:45:11;;;;;;;20.50;7.90;;;;;;;;;;5078558;28;20046;-84
2022/11/23 07:48:04;;;;;;;13.15;6.88;;;7.60;99.90;;;;;;5078755;28;20085;-84
2022/11/23 07:50:51;;;;;;;20.30;8.00;;;7.90;99.90;;;;;;5065324;28;20055;-84
2022/11/23 07:53:36;;;;;;;15.85;7.47;;;;;;;;;;5064515;28;20039;-84
2022/11/23 07:56:21;;;;;;;16.73;7.47;;;;;;;;;;5078030;28;20042;-84
2022/11/23 07:59:05;;;;;;;15.38;6.97;;;;;;;;;;5093263;28;20067;-84
2022/11/23 08:01:50;;;;;;;15.02;7.03;;;;;;;;;;5093808;28;20031;-84
2022/11/23 08:04:35;;;;;;;19.08;8.27;;;;;;;;;;5078504;28;20567;-84
2022/11/23 08:07:19;;;;;;;16.33;8.15;;;;;;;;;;5078017;28;20385;-84
2022/11/23 08:10:04;;;;;;;17.92;7.00;;;;;;;;;;5077850;28;20181;-85
2022/11/23 08:12:48;;;;;;;19.88;7.63;;;;;;;;;;5093862;28;20035;-84
2022/11/23 08:15:33;;;;;;;19.10;7.13;;;;;;;;;;5078163;28;20043;-84
2022/11/23 08:18:18;;;;;;;18.60;6.53;;;;;;;;;;5077862;28;20093;-84
2022/11/23 08:21:02;;;;;;;15.30;6.78;;;;;;;;;;5093357;28;20085;-87
2022/11/23 08:23:47;;;;;;;19.05;8.07;;;;;;;;;;5078150;28;20543;-84
2022/11/23 08:26:31;;;;;;;14.55;7.03;;;;;;;;;;5078300;28;20499;-84
2022/11/23 08:29:16;;;;;;;18.48;7.05;;;;;;;;;;5077669;28;20039;-84
2022/11/23 08:32:00;;;;;;;13.27;6.60;;;;;;;;;;5077845;28;20114;-84
2022/11/23 08:34:45;;;;;;;26.85;9.00;;;;;;;;;;5078119;28;20139;-84
2022/11/23 08:37:29;;;;;;;18.90;6.50;;;;;;;;;;5093212;28;20039;-85
2022/11/23 08:40:14;;;;;;;17.17;6.28;;;;;;;;;;5077454;28;20070;-84
2022/11/23 08:42:59;;;;;;;15.85;6.47;;;;;;;;;;5077598;28;20038;-85
2022/11/23 08:45:43;;;;;;;20.77;6.90;;;;;;;;;;5093178;28;20408;-84
2022/11/23 08:48:28;;;;;;;19.25;6.28;;;;;;;;;;5092625;28;20039;-84
2022/11/23 08:51:13;;;;;;;14.57;6.85;;;;;;;;;;5092332;28;20109;-84
2022/11/23 08:53:57;;;;;;;16.45;6.35;;;;;;;;;;5077758;28;20051;-84
2022/11/23 08:56:43;;;;;;;17.20;6.72;;;;;;;;;;5092935;28;20067;-84
2022/11/23 08:59:28;;;;;;;18.98;6.22;;;;;;;;;;5051279;28;20067;-84
2022/11/23 09:02:12;;;;;;;15.05;5.95;;;;;;;;;;5059651;28;20035;-84
2022/11/23 09:04:57;;;;;;;14.07;6.47;;;;;;;;;;5072612;28;20049;-84
2022/11/23 09:07:41;;;;;;;15.48;5.93;;;;;;;;;;5071485;28;20503;-84
2022/11/23 09:10:26;;;;;;;13.45;6.28;;;;;;;;;;5071923;28;20032;-84
2022/11/23 09:13:11;;;;;;;18.05;6.45;;;;;;;;;;5072185;28;20042;-85
2022/11/23 09:15:59;;;;;;;19.27;6.15;;;8.20;99.90;;;;;;5072410;28;20062;-84
2022/11/23 09:18:44;;;;;;;16.42;5.43;;;;;;;;;;5072444;28;20048;-84
2022/11/23 09:21:32;;;;;;;13.70;5.53;;;;;;;;;;5071098;28;20044;-84
2022/11/23 09:24:16;;;;;;;15.45;5.05;;;;;;;;;;5070876;28;20078;-84
2022/11/23 09:27:01;;;;;;;14.80;6.90;;;;;;;;;;5071355;28;20163;-84
2022/11/23 09:29:46;;;;;;;17.23;7.88;;;;;;;;;;5071300;28;20078;-84
2022/11/23 09:32:31;;;;;;;12.60;5.18;;;8.70;99.90;;;;;;5071796;28;20082;-84
2022/11/23 09:35:16;;;;;;;16.20;5.57;;;;;;;;;;5071785;28;20043;-84
2022/11/23 09:38:00;;;;;;;18.48;5.10;;;;;;;;;;5073363;28;20127;-84
2022/11/23 09:40:45;;;;;;;14.00;5.15;;;;;;;;;;5061176;28;20094;-84
2022/11/23 09:43:59;;;;;;;16.38;5.60;;;8.70;99.90;;;;;;5074998;28;20083;-84
2022/11/23 09:46:52;;;;;;;19.02;6.13;;;8.80;99.90;;;;;;5075147;28;20074;-84
2022/11/23 09:49:46;;;;;;;14.63;4.97;;;8.80;99.90;;;;;;5075696;28;20475;-84
2022/11/23 09:52:31;;;;;;;16.92;5.55;;;;;;;;;;5075781;28;20270;-84
2022/11/23 09:55:32;;;;;;;16.50;5.88;;;8.80;99.90;;;;;;5074608;28;20435;-85
2022/11/23 09:58:21;;;;;;;13.07;6.15;;;8.80;99.90;;;;;;5081450;28;20404;-84
2022/11/23 10:01:10;;;;;;;21.13;5.63;;;8.80;99.90;;;;;;5081094;28;20035;-84
2022/11/23 10:03:55;;;;;;;14.63;4.68;;;;;;;;;;5081117;28;20090;-84
2022/11/23 10:06:42;;;;;;;13.00;4.53;;;8.80;99.90;;;;;;5095539;28;20074;-84
2022/11/23 10:10:11;;;;;;;18.13;5.22;;;8.80;99.90;;;;;;5080289;28;20078;-84
2022/11/23 10:12:55;;;;;;;20.35;5.20;;;;;;;;;;5101104;28;20057;-84
2022/11/23 10:16:00;;;;;;;15.07;5.20;;;8.90;99.90;;;;;;5080098;28;20047;-84
2022/11/23 10:19:04;;;;;;;11.07;4.47;;;8.80;99.90;;;;;;5080491;28;20027;-84
2022/11/23 10:21:49;;;;;;;20.45;5.28;;;;;;;;;;5080327;28;20100;-84
2022/11/23 10:24:43;;;;;;;18.40;4.80;;;8.80;99.90;;;;;;5080021;28;20039;-84
2022/11/23 10:27:28;;;;;;;14.48;4.18;;;8.90;99.90;;;;;;5079963;28;20081;-85
2022/11/23 10:30:15;;;;;;;21.20;4.93;;;8.80;99.90;;;;;;5095491;28;20084;-85
2022/11/23 10:33:21;;;;;;;12.68;4.53;;;8.90;99.90;;;;;;5080400;28;20043;-84
2022/11/23 10:36:08;;;;;;;15.02;4.53;;;;;;;;;;5080200;28;20143;-85
2022/11/23 10:39:00;;;;;;;18.10;3.78;;;9.10;99.90;;;;;;5080234;28;20093;-84
2022/11/23 10:41:45;;;;;;;12.07;3.95;;;;;;;;;;5080292;28;20039;-84
2022/11/23 10:44:35;;;;;;;13.30;4.15;;;8.90;99.90;;;;;;5079472;28;20120;-84
2022/11/23 10:47:49;;;;;;;15.20;3.63;;;9.00;99.90;;;;;;5095226;28;20392;-84
2022/11/23 10:50:36;;;;;;;23.83;4.00;;;8.90;99.90;;;;;;5083089;28;20026;-84
2022/11/23 10:53:22;;;;;;;12.43;4.47;;;8.90;99.90;;;;;;5095024;28;20116;-84
2022/11/23 10:56:11;;;;;;;13.10;3.13;;;8.90;99.90;;;;;;5095270;28;20517;-85
2022/11/23 10:58:56;;;;;;;15.98;3.75;;;;;;;;;;5079765;28;20404;-84
2022/11/23 11:01:40;;;;;;;16.50;4.72;;;;;;;;;;5079231;28;20137;-84
2022/11/23 11:04:25;;;;;;;11.50;3.55;;;;;;;;;;5065166;28;20043;-85
2022/11/23 11:07:18;;;;;;;19.08;4.10;;;8.90;99.90;;;;;;5079888;28;20071;-84
2022/11/23 11:10:03;;;;;;;15.73;4.53;;;9.00;99.90;;;;;;5079481;28;20115;-85
2022/11/23 11:12:50;;;;;;;14.00;3.95;;;9.10;99.90;;;;;;5094412;28;20062;-84
2022/11/23 11:15:35;;;;;;;17.27;3.35;;;;;;;;;;5064704;28;20047;-84
2022/11/23 11:18:19;;;;;;;13.05;3.33;;;;;;;;;;5079415;28;20157;-85
2022/11/23 11:21:18;;;;;;;14.35;3.47;;;9.20;99.90;;;;;;5079356;28;20039;-84
2022/11/23 11:24:20;;;;;;;12.90;3.00;;;9.20;99.90;;;;;;5079108;28;20038;-84
2022/11/23 11:27:20;;;;;;;16.48;4.25;;;9.30;99.90;;;;;;5079184;28;20085;-84
2022/11/23 11:30:19;;;;;;;14.73;3.10;;;9.30;99.90;;;;;;5079215;28;20039;-84
2022/11/23 11:33:15;;;;;;;13.23;3.10;;;9.50;99.90;;;;;;5079311;28;20084;-84
2022/11/23 11:36:02;;;;;;;17.20;3.63;;;9.50;99.90;;;;;;5094239;28;20043;-84
2022/11/23 11:38:51;;;;;;;15.23;3.10;;;9.50;99.90;;;;;;5093854;28;20107;-84
2022/11/23 11:41:37;;;;;;;15.95;2.92;;;9.50;99.90;;;;;;5078486;28;20068;-84
2022/11/23 11:44:24;;;;;;;16.10;3.15;;;9.50;99.90;;;;;;5078703;28;20039;-84
2022/11/23 11:47:40;;;;;;;13.65;3.83;;;9.50;99.90;;;;;;5078966;28;20039;-85
2022/11/23 11:50:28;;;;;;;17.75;6.20;;;9.50;99.90;;;;;;5078437;28;20091;-84
2022/11/23 11:53:21;;;;;;;10.65;2.63;;;9.50;99.90;;;;;;5078626;28;20113;-84
2022/11/23 11:56:21;;;;;;;15.55;4.25;;;9.60;99.90;;;;;;5094175;28;20400;-84
2022/11/23 11:59:23;;;;;;;12.70;2.97;;;9.60;99.90;;;;;;5083686;28;20051;-84
2022/11/23 12:02:21;;;;;;;15.00;3.58;;;9.60;99.90;;;;;;5078224;28;20039;-85
2022/11/23 12:05:43;;;;;;;15.15;4.78;;;9.70;99.90;;;;;;5093719;28;20081;-84
2022/11/23 12:08:44;;;;;;;14.23;3.00;;;9.70;99.90;;;;;;5078231;28;20058;-84
2022/11/23 12:11:29;;;;;;;11.52;3.53;;;;;;;;;;5078435;28;20452;-84
2022/11/23 12:14:14;;;;;;;14.35;3.38;;;;;;;;;;5093464;28;20446;-84
2022/11/23 12:17:20;;;;;;;19.58;4.68;;;9.80;99.90;;;;;;5093512;28;20035;-84
2022/11/23 12:20:24;;;;;;;10.48;2.40;;;9.80;99.90;;;;;;5093446;28;20103;-84
2022/11/23 12:23:34;;;;;;;11.73;2.92;;;9.90;99.90;;;;;;5078271;28;20043;-85
2022/11/23 12:26:46;;;;;;;17.17;3.38;;;10.00;99.90;;;;;;5096582;28;20085;-84
2022/11/23 12:29:52;;;;;;;11.88;2.20;;;10.00;99.90;;;;;;5078023;28;20043;-84
2022/11/23 12:32:58;;;;;;;13.60;3.47;;;9.80;99.90;;;;;;5092853;28;20399;-84
2022/11/23 12:36:05;;;;;;;16.38;2.67;;;9.90;99.90;;;;;;5092643;28;20039;-84
2022/11/23 12:39:30;;;;;;;11.80;2.60;;;10.10;99.90;;;;;;5092717;28;20093;-84
2022/11/23 12:43:11;;;;;;;12.60;3.42;;;10.00;99.90;;;;;;5084361;28;20100;-84
2022/11/23 12:46:35;;;;;;;12.70;2.72;;;10.10;99.90;;;;;;5030517;28;20084;-84
2022/11/23 12:49:35;;;;;;;13.00;2.60;;;10.20;99.90;;;;;;5022282;28;20127;-84
2022/11/23 12:52:40;;;;;;;13.10;2.47;;;10.10;99.90;;;;;;5083039;28;20092;-84
2022/11/23 12:55:44;;;;;;;11.38;3.30;;;10.10;99.90;;;;;;5077597;28;20039;-83
2022/11/23 12:58:31;;;;;;;13.93;2.75;;;10.20;99.90;;;;;;5092723;28;20557;-84
2022/11/23 13:01:21;;;;;;;11.68;2.50;;;10.10;99.90;;;;;;5092962;28;20078;-84
2022/11/23 13:04:21;;;;;;;10.32;2.47;;;;;;;;;;5092768;28;20039;-84
2022/11/23 13:07:33;;;;;;;11.52;2.38;;;10.10;99.90;;;;;;5092774;28;20073;-84
2022/11/23 13:10:39;;;;;;;12.20;2.17;;;10.10;99.90;;;;;;5077415;28;20081;-84
2022/11/23 13:13:58;;;;;;;10.73;2.20;;;10.00;99.90;;;;;;5076635;28;20038;-84
2022/11/23 13:17:14;;;;;;;19.52;3.00;;;10.20;99.90;;;;;;5092210;28;20128;-84
2022/11/23 13:20:19;;;;;;;10.43;2.50;;;10.00;99.90;;;;;;5092285;28;20507;-84
2022/11/23 13:23:05;;;;;;;8.20;2.47;;;;;;;;;;5082366;28;20391;-84
2022/11/23 13:26:22;;;;;;;13.82;3.53;;;10.10;99.90;;;;;;5092084;28;20043;-84
2022/11/23 13:29:44;;;;;;;9.30;2.53;;;10.00;99.90;;;;;;5092166;28;20030;-84
2022/11/23 13:32:38;;;;;;;11.18;2.28;;;;;;;;;;5077104;28;20035;-83
2022/11/23 13:35:23;;;;;;;9.20;2.05;;;;;;;;;;5092373;28;20072;-84
2022/11/23 13:38:13;;;;;;;7.95;1.85;;;10.00;99.90;;;;;;5076740;28;20036;-84
2022/11/23 13:40:57;;;;;;;13.20;2.22;;;;;;;;;;5076704;28;20142;-84
2022/11/23 13:43:42;;;;;;;12.90;2.20;;;;;;;;;;5077328;28;20036;-84
2022/11/23 13:46:31;;;;;;;11.55;2.10;;;;;;;;;;5062789;28;20035;-83
2022/11/23 13:49:43;;;;;;;7.60;2.15;;;9.90;99.90;;;;;;5092381;28;20039;-84
2022/11/23 13:52:29;;;;;;;12.30;2.25;;;;;;;;;;5083367;28;20070;-84
2022/11/23 13:55:13;;;;;;;10.02;2.15;;;;;;;;;;5091989;28;20082;-84
2022/11/23 13:58:22;;;;;;;8.32;2.03;;;9.80;99.90;;;;;;5076454;28;20066;-84
2022/11/23 14:01:07;;;;;;;10.55;2.55;;;;;;;;;;5076556;28;20070;-83
2022/11/23 14:03:57;;;;;;;8.38;2.03;;;9.90;99.90;;;;;;5091834;28;20173;-83
2022/11/23 14:06:54;;;;;;;11.23;2.63;;;9.80;99.90;;;;;;5076752;28;20081;-84
2022/11/23 14:09:49;;;;;;;9.73;1.80;;;9.80;99.90;;;;;;5092314;28;20445;-83
2022/11/23 14:13:01;;;;;;;10.60;1.92;;;9.80;99.90;;;;;;5092137;28;20107;-83
2022/11/23 14:15:57;;;;;;;12.40;1.95;;;9.70;99.90;;;;;;5076396;28;20136;-83
2022/11/23 14:19:23;;;;;;;8.07;1.80;;;9.40;99.90;;;;;;5076653;28;20110;-84
2022/11/23 14:22:35;;;;;;;8.90;1.70;;;9.60;99.90;;;;;;5075599;28;20438;-84
2022/11/23 14:25:31;;;;;;;11.48;2.40;;;9.50;99.90;;;;;;5079640;28;20442;-84
2022/11/23 14:28:55;;;;;;;11.80;2.33;;;9.50;99.90;;;;;;5080346;28;20035;-84
2022/11/23 14:32:06;;;;;;;9.95;2.42;;;9.40;99.90;;;;;;5080313;28;20112;-84
2022/11/23 14:35:10;;;;;;;8.20;1.88;;;9.30;99.90;;;;;;5085236;28;20205;-85
2022/11/23 14:38:32;;;;;;;16.13;3.47;;;9.30;99.90;;;;;;5079700;28;20441;-84
2022/11/23 14:41:22;;;;;;;8.65;1.85;;;9.20;99.90;;;;;;5095301;28;20039;-84
2022/11/23 14:44:13;;;;;;;8.32;2.22;;;9.20;99.90;;;;;;5079986;28;20039;-83
2022/11/23 14:47:03;;;;;;;9.60;2.10;;;9.20;99.90;;;;;;5094919;28;20067;-83
2022/11/23 14:49:51;;;;;;;9.07;1.90;;;9.00;99.90;;;;;;5095093;28;20103;-83
2022/11/23 14:52:36;;;;;;;6.82;1.83;;;9.10;99.90;;;;;;5095169;28;20043;-83
2022/11/23 14:55:26;;;;;;;5.28;1.80;;;9.10;99.90;;;;;;5065531;28;20506;-84
2022/11/23 14:58:14;;;;;;;7.18;1.75;;;9.10;99.90;;;;;;5079055;28;20043;-84
2022/11/23 15:01:03;;;;;;;7.75;1.67;;;9.70;99.90;;;;;;5094606;28;20096;-84
2022/11/23 15:04:17;;;;;;;12.15;1.73;;;8.70;99.90;;;;;;5095044;28;20035;-84
2022/11/23 15:07:12;;;;;;;11.00;2.17;;;9.00;99.90;;;;;;5079025;28;20089;-84
2022/11/23 15:09:56;;;;;;;9.55;1.65;;;;;;;;;;5094538;28;20195;-85
2022/11/23 15:12:43;;;;;;;8.70;2.03;;;8.90;99.90;;;;;;5095103;28;20124;-84
2022/11/23 15:15:31;;;;;;;7.80;1.95;;;8.80;99.90;;;;;;5079334;28;20090;-84
2022/11/23 15:18:29;;;;;;;9.88;2.25;;;8.80;99.90;;;;;;5094347;28;20039;-84
2022/11/23 15:21:21;;;;;;;11.20;2.58;;;8.90;99.90;;;;;;5094169;28;20082;-84
2022/11/23 15:24:19;;;;;;;9.10;1.95;;;8.30;99.90;;;;;;5078552;28;20070;-84
2022/11/23 15:27:04;;;;;;;9.68;2.92;;;8.60;99.90;;;;;;5066578;28;20055;-84
2022/11/23 15:29:54;;;;;;;6.53;1.77;;;8.70;99.90;;;;;;5094682;28;20116;-84
2022/11/23 15:32:39;;;;;;;8.82;2.03;;;;;;;;;;5094674;28;20521;-84
2022/11/23 15:35:29;;;;;;;6.65;2.08;;;8.70;99.90;;;;;;5064429;28;20089;-84
2022/11/23 15:38:14;;;;;;;9.70;2.42;;;8.70;99.90;;;;;;5093888;28;20039;-84
2022/11/23 15:41:03;;;;;;;10.50;3.28;;;;;;;;;;5078413;28;20043;-86
2022/11/23 15:43:53;;;;;;;7.75;2.30;;;8.70;99.90;;;;;;5078962;28;20122;-84
2022/11/23 15:46:39;;;;;;;9.38;2.75;;;8.80;99.90;;;;;;5094303;28;20462;-84